sensor_id;sensor_type;location;lat;lon;timestamp;P1;durP1;ratioP1;P2;durP2;ratioP2
43150;SDS011;28755;51.478;5.702;2023-06-05T00:01:36;6.15;;;3.17;;
43150;SDS011;28755;51.478;5.702;2023-06-05T00:04:02;4.85;;;2.60;;
43150;SDS011;28755;51.478;5.702;2023-06-05T00:06:28;7.60;;;2.83;;
43150;SDS011;28755;51.478;5.702;2023-06-05T00:08:54;5.20;;;2.58;;
43150;SDS011;28755;51.478;5.702;2023-06-05T00:11:20;11.07;;;3.10;;
43150;SDS011;28755;51.478;5.702;2023-06-05T00:13:46;9.30;;;2.63;;
43150;SDS011;28755;51.478;5.702;2023-06-05T00:16:12;7.13;;;2.85;;
43150;SDS011;28755;51.478;5.702;2023-06-05T00:18:38;6.75;;;2.95;;
43150;SDS011;28755;51.478;5.702;2023-06-05T00:21:03;8.20;;;3.08;;
43150;SDS011;28755;51.478;5.702;2023-06-05T00:23:29;5.90;;;2.90;;
43150;SDS011;28755;51.478;5.702;2023-06-05T00:25:54;5.45;;;2.80;;
43150;SDS011;28755;51.478;5.702;2023-06-05T00:28:20;10.38;;;3.50;;
43150;SDS011;28755;51.478;5.702;2023-06-05T00:30:46;8.32;;;3.22;;
43150;SDS011;28755;51.478;5.702;2023-06-05T00:33:11;5.35;;;2.83;;
43150;SDS011;28755;51.478;5.702;2023-06-05T00:35:38;9.30;;;3.35;;
43150;SDS011;28755;51.478;5.702;2023-06-05T00:38:04;6.78;;;3.00;;
43150;SDS011;28755;51.478;5.702;2023-06-05T00:40:31;6.40;;;3.22;;
43150;SDS011;28755;51.478;5.702;2023-06-05T00:42:57;6.70;;;3.03;;
43150;SDS011;28755;51.478;5.702;2023-06-05T00:45:23;6.35;;;3.13;;
43150;SDS011;28755;51.478;5.702;2023-06-05T00:47:48;9.43;;;3.30;;
43150;SDS011;28755;51.478;5.702;2023-06-05T00:50:15;6.45;;;3.22;;
43150;SDS011;28755;51.478;5.702;2023-06-05T00:52:42;7.28;;;3.53;;
43150;SDS011;28755;51.478;5.702;2023-06-05T00:55:09;8.15;;;3.45;;
43150;SDS011;28755;51.478;5.702;2023-06-05T00:57:36;8.85;;;3.50;;
43150;SDS011;28755;51.478;5.702;2023-06-05T01:00:04;6.22;;;3.70;;
43150;SDS011;28755;51.478;5.702;2023-06-05T01:02:32;7.28;;;3.58;;
43150;SDS011;28755;51.478;5.702;2023-06-05T01:04:59;7.22;;;3.42;;
43150;SDS011;28755;51.478;5.702;2023-06-05T01:07:25;6.05;;;3.53;;
43150;SDS011;28755;51.478;5.702;2023-06-05T01:09:52;8.52;;;3.80;;
43150;SDS011;28755;51.478;5.702;2023-06-05T01:12:26;7.43;;;3.75;;
43150;SDS011;28755;51.478;5.702;2023-06-05T01:14:58;8.60;;;3.95;;
43150;SDS011;28755;51.478;5.702;2023-06-05T01:17:27;8.43;;;4.22;;
43150;SDS011;28755;51.478;5.702;2023-06-05T01:19:58;10.35;;;4.45;;
43150;SDS011;28755;51.478;5.702;2023-06-05T01:22:35;5.70;;;3.88;;
43150;SDS011;28755;51.478;5.702;2023-06-05T01:25:02;7.35;;;3.88;;
43150;SDS011;28755;51.478;5.702;2023-06-05T01:33:34;12.30;;;4.53;;
43150;SDS011;28755;51.478;5.702;2023-06-05T01:36:09;9.95;;;3.92;;
43150;SDS011;28755;51.478;5.702;2023-06-05T01:38:36;10.02;;;4.18;;
43150;SDS011;28755;51.478;5.702;2023-06-05T01:41:03;8.82;;;4.53;;
43150;SDS011;28755;51.478;5.702;2023-06-05T01:43:30;11.45;;;4.25;;
43150;SDS011;28755;51.478;5.702;2023-06-05T01:45:57;8.65;;;4.75;;
43150;SDS011;28755;51.478;5.702;2023-06-05T01:48:24;8.32;;;4.70;;
43150;SDS011;28755;51.478;5.702;2023-06-05T01:50:58;11.30;;;4.78;;
43150;SDS011;28755;51.478;5.702;2023-06-05T01:53:24;8.05;;;4.47;;
43150;SDS011;28755;51.478;5.702;2023-06-05T01:55:50;7.32;;;4.65;;
43150;SDS011;28755;51.478;5.702;2023-06-05T01:58:22;17.20;;;4.95;;
43150;SDS011;28755;51.478;5.702;2023-06-05T02:00:51;8.43;;;4.60;;
43150;SDS011;28755;51.478;5.702;2023-06-05T02:03:22;10.55;;;5.20;;
43150;SDS011;28755;51.478;5.702;2023-06-05T02:05:48;8.68;;;5.10;;
43150;SDS011;28755;51.478;5.702;2023-06-05T02:08:14;8.38;;;4.68;;
43150;SDS011;28755;51.478;5.702;2023-06-05T02:10:44;9.65;;;5.25;;
43150;SDS011;28755;51.478;5.702;2023-06-05T02:13:11;7.63;;;4.65;;
43150;SDS011;28755;51.478;5.702;2023-06-05T02:15:36;8.20;;;4.85;;
43150;SDS011;28755;51.478;5.702;2023-06-05T02:18:02;8.93;;;5.15;;
43150;SDS011;28755;51.478;5.702;2023-06-05T02:20:29;8.52;;;5.03;;
43150;SDS011;28755;51.478;5.702;2023-06-05T02:22:56;8.73;;;5.28;;
43150;SDS011;28755;51.478;5.702;2023-06-05T02:25:22;9.52;;;5.25;;
43150;SDS011;28755;51.478;5.702;2023-06-05T02:27:51;9.32;;;5.22;;
43150;SDS011;28755;51.478;5.702;2023-06-05T02:30:17;11.50;;;5.28;;
43150;SDS011;28755;51.478;5.702;2023-06-05T02:32:43;8.95;;;5.22;;
43150;SDS011;28755;51.478;5.702;2023-06-05T02:35:09;7.75;;;5.55;;
43150;SDS011;28755;51.478;5.702;2023-06-05T02:37:35;9.02;;;5.78;;
43150;SDS011;28755;51.478;5.702;2023-06-05T02:40:08;7.25;;;5.05;;
43150;SDS011;28755;51.478;5.702;2023-06-05T02:42:35;8.80;;;5.28;;
43150;SDS011;28755;51.478;5.702;2023-06-05T02:45:01;9.60;;;5.82;;
43150;SDS011;28755;51.478;5.702;2023-06-05T02:47:27;11.45;;;5.70;;
43150;SDS011;28755;51.478;5.702;2023-06-05T02:49:54;11.15;;;5.80;;
43150;SDS011;28755;51.478;5.702;2023-06-05T02:52:19;7.70;;;5.57;;
43150;SDS011;28755;51.478;5.702;2023-06-05T02:54:45;8.32;;;5.50;;
43150;SDS011;28755;51.478;5.702;2023-06-05T02:57:11;8.32;;;6.00;;
43150;SDS011;28755;51.478;5.702;2023-06-05T02:59:37;10.18;;;6.20;;
43150;SDS011;28755;51.478;5.702;2023-06-05T03:02:04;11.90;;;5.93;;
43150;SDS011;28755;51.478;5.702;2023-06-05T03:04:30;11.95;;;6.38;;
43150;SDS011;28755;51.478;5.702;2023-06-05T03:06:59;8.63;;;5.78;;
43150;SDS011;28755;51.478;5.702;2023-06-05T03:09:28;10.95;;;6.45;;
43150;SDS011;28755;51.478;5.702;2023-06-05T03:11:55;16.23;;;6.95;;
43150;SDS011;28755;51.478;5.702;2023-06-05T03:14:20;13.00;;;6.70;;
43150;SDS011;28755;51.478;5.702;2023-06-05T03:16:46;9.20;;;6.15;;
43150;SDS011;28755;51.478;5.702;2023-06-05T03:19:12;11.63;;;6.55;;
43150;SDS011;28755;51.478;5.702;2023-06-05T03:21:37;16.05;;;6.45;;
43150;SDS011;28755;51.478;5.702;2023-06-05T03:24:04;13.93;;;7.07;;
43150;SDS011;28755;51.478;5.702;2023-06-05T03:26:31;10.20;;;6.28;;
43150;SDS011;28755;51.478;5.702;2023-06-05T03:28:58;11.65;;;6.85;;
43150;SDS011;28755;51.478;5.702;2023-06-05T03:31:23;8.88;;;6.57;;
43150;SDS011;28755;51.478;5.702;2023-06-05T03:33:50;11.85;;;6.82;;
43150;SDS011;28755;51.478;5.702;2023-06-05T03:36:16;14.07;;;6.60;;
43150;SDS011;28755;51.478;5.702;2023-06-05T03:38:44;13.77;;;7.25;;
43150;SDS011;28755;51.478;5.702;2023-06-05T03:41:10;14.25;;;7.45;;
43150;SDS011;28755;51.478;5.702;2023-06-05T03:43:36;9.73;;;6.63;;
43150;SDS011;28755;51.478;5.702;2023-06-05T03:46:02;10.15;;;6.85;;
43150;SDS011;28755;51.478;5.702;2023-06-05T03:48:28;10.55;;;7.43;;
43150;SDS011;28755;51.478;5.702;2023-06-05T03:50:54;12.10;;;7.45;;
43150;SDS011;28755;51.478;5.702;2023-06-05T03:53:22;13.48;;;7.53;;
43150;SDS011;28755;51.478;5.702;2023-06-05T03:55:48;15.00;;;7.93;;
43150;SDS011;28755;51.478;5.702;2023-06-05T03:58:17;10.77;;;7.53;;
43150;SDS011;28755;51.478;5.702;2023-06-05T04:00:45;11.45;;;7.47;;
43150;SDS011;28755;51.478;5.702;2023-06-05T04:03:15;13.50;;;7.85;;
43150;SDS011;28755;51.478;5.702;2023-06-05T04:05:41;9.63;;;7.20;;
43150;SDS011;28755;51.478;5.702;2023-06-05T04:08:08;10.90;;;7.63;;
43150;SDS011;28755;51.478;5.702;2023-06-05T04:10:34;16.65;;;7.45;;
43150;SDS011;28755;51.478;5.702;2023-06-05T04:13:00;13.98;;;7.88;;
43150;SDS011;28755;51.478;5.702;2023-06-05T04:15:28;10.45;;;7.18;;
43150;SDS011;28755;51.478;5.702;2023-06-05T04:17:53;14.63;;;7.80;;
43150;SDS011;28755;51.478;5.702;2023-06-05T04:20:19;12.48;;;7.70;;
43150;SDS011;28755;51.478;5.702;2023-06-05T04:22:45;11.93;;;7.57;;
43150;SDS011;28755;51.478;5.702;2023-06-05T04:25:11;11.05;;;7.80;;
43150;SDS011;28755;51.478;5.702;2023-06-05T04:27:37;11.20;;;7.53;;
43150;SDS011;28755;51.478;5.702;2023-06-05T04:30:04;13.27;;;7.70;;
43150;SDS011;28755;51.478;5.702;2023-06-05T04:32:31;12.88;;;8.15;;
43150;SDS011;28755;51.478;5.702;2023-06-05T04:34:59;13.57;;;8.02;;
43150;SDS011;28755;51.478;5.702;2023-06-05T04:37:25;12.40;;;7.88;;
43150;SDS011;28755;51.478;5.702;2023-06-05T04:39:51;9.80;;;7.28;;
43150;SDS011;28755;51.478;5.702;2023-06-05T04:42:17;14.65;;;8.32;;
43150;SDS011;28755;51.478;5.702;2023-06-05T04:44:43;11.15;;;8.05;;
43150;SDS011;28755;51.478;5.702;2023-06-05T04:47:09;11.88;;;7.95;;
43150;SDS011;28755;51.478;5.702;2023-06-05T04:49:35;11.35;;;7.75;;
43150;SDS011;28755;51.478;5.702;2023-06-05T04:52:00;14.45;;;8.55;;
43150;SDS011;28755;51.478;5.702;2023-06-05T04:54:26;12.20;;;8.23;;
43150;SDS011;28755;51.478;5.702;2023-06-05T04:56:51;13.90;;;8.27;;
43150;SDS011;28755;51.478;5.702;2023-06-05T04:59:17;13.68;;;8.18;;
43150;SDS011;28755;51.478;5.702;2023-06-05T05:01:43;16.23;;;9.13;;
43150;SDS011;28755;51.478;5.702;2023-06-05T05:04:09;14.40;;;8.23;;
43150;SDS011;28755;51.478;5.702;2023-06-05T05:06:36;9.68;;;7.18;;
43150;SDS011;28755;51.478;5.702;2023-06-05T05:09:03;13.32;;;8.50;;
43150;SDS011;28755;51.478;5.702;2023-06-05T05:11:29;12.13;;;8.40;;
43150;SDS011;28755;51.478;5.702;2023-06-05T05:13:55;11.45;;;8.55;;
43150;SDS011;28755;51.478;5.702;2023-06-05T05:16:20;14.15;;;8.82;;
43150;SDS011;28755;51.478;5.702;2023-06-05T05:18:47;12.82;;;8.68;;
43150;SDS011;28755;51.478;5.702;2023-06-05T05:21:12;11.70;;;8.90;;
43150;SDS011;28755;51.478;5.702;2023-06-05T05:23:38;11.70;;;8.88;;
43150;SDS011;28755;51.478;5.702;2023-06-05T05:26:04;13.63;;;9.10;;
43150;SDS011;28755;51.478;5.702;2023-06-05T05:28:30;13.93;;;9.07;;
43150;SDS011;28755;51.478;5.702;2023-06-05T05:30:55;13.07;;;9.32;;
43150;SDS011;28755;51.478;5.702;2023-06-05T05:33:22;12.32;;;8.95;;
43150;SDS011;28755;51.478;5.702;2023-06-05T05:35:48;14.02;;;8.68;;
43150;SDS011;28755;51.478;5.702;2023-06-05T05:38:13;15.68;;;9.52;;
43150;SDS011;28755;51.478;5.702;2023-06-05T05:40:39;13.60;;;8.98;;
43150;SDS011;28755;51.478;5.702;2023-06-05T05:43:05;13.07;;;8.82;;
43150;SDS011;28755;51.478;5.702;2023-06-05T05:45:30;11.15;;;8.95;;
43150;SDS011;28755;51.478;5.702;2023-06-05T05:47:56;12.40;;;8.68;;
43150;SDS011;28755;51.478;5.702;2023-06-05T05:50:22;13.98;;;9.40;;
43150;SDS011;28755;51.478;5.702;2023-06-05T05:52:47;11.18;;;8.65;;
43150;SDS011;28755;51.478;5.702;2023-06-05T05:55:13;13.73;;;9.10;;
43150;SDS011;28755;51.478;5.702;2023-06-05T05:57:39;9.73;;;7.82;;
43150;SDS011;28755;51.478;5.702;2023-06-05T06:00:05;16.98;;;10.10;;
43150;SDS011;28755;51.478;5.702;2023-06-05T06:02:35;16.30;;;9.10;;
43150;SDS011;28755;51.478;5.702;2023-06-05T06:05:02;12.27;;;8.82;;
43150;SDS011;28755;51.478;5.702;2023-06-05T06:07:29;11.95;;;8.73;;
43150;SDS011;28755;51.478;5.702;2023-06-05T06:09:56;13.70;;;8.55;;
43150;SDS011;28755;51.478;5.702;2023-06-05T06:12:21;14.25;;;9.20;;
43150;SDS011;28755;51.478;5.702;2023-06-05T06:14:47;16.58;;;9.48;;
43150;SDS011;28755;51.478;5.702;2023-06-05T06:17:13;13.88;;;9.35;;
43150;SDS011;28755;51.478;5.702;2023-06-05T06:19:39;13.07;;;9.32;;
43150;SDS011;28755;51.478;5.702;2023-06-05T06:22:05;13.13;;;9.82;;
43150;SDS011;28755;51.478;5.702;2023-06-05T06:24:36;15.45;;;8.80;;
43150;SDS011;28755;51.478;5.702;2023-06-05T06:27:05;11.18;;;9.13;;
43150;SDS011;28755;51.478;5.702;2023-06-05T06:29:31;12.57;;;9.05;;
43150;SDS011;28755;51.478;5.702;2023-06-05T06:31:57;13.77;;;8.95;;
43150;SDS011;28755;51.478;5.702;2023-06-05T06:34:22;15.85;;;8.68;;
43150;SDS011;28755;51.478;5.702;2023-06-05T06:36:49;14.73;;;9.40;;
43150;SDS011;28755;51.478;5.702;2023-06-05T06:39:16;14.30;;;9.80;;
43150;SDS011;28755;51.478;5.702;2023-06-05T06:41:43;15.30;;;9.02;;
43150;SDS011;28755;51.478;5.702;2023-06-05T06:44:09;13.38;;;8.65;;
43150;SDS011;28755;51.478;5.702;2023-06-05T06:46:35;14.23;;;7.90;;
43150;SDS011;28755;51.478;5.702;2023-06-05T06:49:01;13.32;;;8.02;;
43150;SDS011;28755;51.478;5.702;2023-06-05T06:51:27;12.45;;;8.60;;
43150;SDS011;28755;51.478;5.702;2023-06-05T06:53:53;12.73;;;8.60;;
43150;SDS011;28755;51.478;5.702;2023-06-05T06:56:19;11.43;;;8.85;;
43150;SDS011;28755;51.478;5.702;2023-06-05T06:58:45;12.43;;;8.73;;
43150;SDS011;28755;51.478;5.702;2023-06-05T07:01:10;11.25;;;8.68;;
43150;SDS011;28755;51.478;5.702;2023-06-05T07:03:37;14.88;;;8.85;;
43150;SDS011;28755;51.478;5.702;2023-06-05T07:06:05;14.52;;;8.30;;
43150;SDS011;28755;51.478;5.702;2023-06-05T07:08:30;13.20;;;8.32;;
43150;SDS011;28755;51.478;5.702;2023-06-05T07:10:56;12.15;;;8.45;;
43150;SDS011;28755;51.478;5.702;2023-06-05T07:13:22;18.70;;;9.00;;
43150;SDS011;28755;51.478;5.702;2023-06-05T07:15:48;16.95;;;9.35;;
43150;SDS011;28755;51.478;5.702;2023-06-05T07:18:14;14.27;;;8.52;;
43150;SDS011;28755;51.478;5.702;2023-06-05T07:20:42;13.07;;;8.10;;
43150;SDS011;28755;51.478;5.702;2023-06-05T07:23:07;12.93;;;8.77;;
43150;SDS011;28755;51.478;5.702;2023-06-05T07:25:33;13.90;;;8.77;;
43150;SDS011;28755;51.478;5.702;2023-06-05T07:27:59;12.75;;;8.23;;
43150;SDS011;28755;51.478;5.702;2023-06-05T07:30:28;14.95;;;8.02;;
43150;SDS011;28755;51.478;5.702;2023-06-05T07:32:53;12.80;;;8.32;;
43150;SDS011;28755;51.478;5.702;2023-06-05T07:35:20;10.93;;;7.25;;
43150;SDS011;28755;51.478;5.702;2023-06-05T07:37:45;11.93;;;8.27;;
43150;SDS011;28755;51.478;5.702;2023-06-05T07:40:11;9.63;;;7.78;;
43150;SDS011;28755;51.478;5.702;2023-06-05T07:42:37;13.60;;;7.80;;
43150;SDS011;28755;51.478;5.702;2023-06-05T07:45:03;11.50;;;7.90;;
43150;SDS011;28755;51.478;5.702;2023-06-05T07:47:29;12.93;;;8.25;;
43150;SDS011;28755;51.478;5.702;2023-06-05T07:49:58;15.35;;;9.10;;
43150;SDS011;28755;51.478;5.702;2023-06-05T07:52:25;10.70;;;7.88;;
43150;SDS011;28755;51.478;5.702;2023-06-05T07:54:51;11.82;;;7.60;;
43150;SDS011;28755;51.478;5.702;2023-06-05T07:57:17;13.35;;;8.25;;
43150;SDS011;28755;51.478;5.702;2023-06-05T07:59:42;12.40;;;7.82;;
43150;SDS011;28755;51.478;5.702;2023-06-05T08:02:08;14.32;;;7.80;;
43150;SDS011;28755;51.478;5.702;2023-06-05T08:04:34;15.52;;;8.55;;
43150;SDS011;28755;51.478;5.702;2023-06-05T08:07:00;14.90;;;8.00;;
43150;SDS011;28755;51.478;5.702;2023-06-05T08:09:26;12.75;;;8.07;;
43150;SDS011;28755;51.478;5.702;2023-06-05T08:11:52;14.77;;;7.90;;
43150;SDS011;28755;51.478;5.702;2023-06-05T08:14:17;14.77;;;7.75;;
43150;SDS011;28755;51.478;5.702;2023-06-05T08:16:43;12.40;;;8.50;;
43150;SDS011;28755;51.478;5.702;2023-06-05T08:19:09;13.52;;;7.93;;
43150;SDS011;28755;51.478;5.702;2023-06-05T08:21:35;13.65;;;8.40;;
43150;SDS011;28755;51.478;5.702;2023-06-05T08:24:02;12.82;;;7.78;;
43150;SDS011;28755;51.478;5.702;2023-06-05T08:26:28;11.82;;;7.72;;
43150;SDS011;28755;51.478;5.702;2023-06-05T08:28:53;11.15;;;8.05;;
43150;SDS011;28755;51.478;5.702;2023-06-05T08:31:19;13.73;;;8.02;;
43150;SDS011;28755;51.478;5.702;2023-06-05T08:33:45;15.45;;;8.57;;
43150;SDS011;28755;51.478;5.702;2023-06-05T08:36:11;16.58;;;8.25;;
43150;SDS011;28755;51.478;5.702;2023-06-05T08:38:36;11.18;;;7.70;;
43150;SDS011;28755;51.478;5.702;2023-06-05T08:41:03;12.80;;;7.72;;
43150;SDS011;28755;51.478;5.702;2023-06-05T08:43:30;12.98;;;8.15;;
43150;SDS011;28755;51.478;5.702;2023-06-05T08:45:56;16.58;;;8.32;;
43150;SDS011;28755;51.478;5.702;2023-06-05T08:48:23;16.15;;;8.02;;
43150;SDS011;28755;51.478;5.702;2023-06-05T08:50:50;12.15;;;8.13;;
43150;SDS011;28755;51.478;5.702;2023-06-05T08:53:17;11.48;;;8.07;;
43150;SDS011;28755;51.478;5.702;2023-06-05T08:55:45;12.60;;;8.18;;
43150;SDS011;28755;51.478;5.702;2023-06-05T08:58:12;16.08;;;9.18;;
43150;SDS011;28755;51.478;5.702;2023-06-05T09:00:38;14.27;;;8.70;;
43150;SDS011;28755;51.478;5.702;2023-06-05T09:03:04;12.55;;;7.70;;
43150;SDS011;28755;51.478;5.702;2023-06-05T09:05:31;11.70;;;8.18;;
43150;SDS011;28755;51.478;5.702;2023-06-05T09:07:57;12.98;;;8.68;;
43150;SDS011;28755;51.478;5.702;2023-06-05T09:10:24;12.27;;;8.23;;
43150;SDS011;28755;51.478;5.702;2023-06-05T09:15:24;9.50;;;7.15;;
43150;SDS011;28755;51.478;5.702;2023-06-05T09:18:11;11.65;;;8.25;;
43150;SDS011;28755;51.478;5.702;2023-06-05T09:20:39;11.98;;;7.28;;
43150;SDS011;28755;51.478;5.702;2023-06-05T09:23:21;12.45;;;7.60;;
43150;SDS011;28755;51.478;5.702;2023-06-05T09:25:52;10.73;;;7.20;;
43150;SDS011;28755;51.478;5.702;2023-06-05T09:28:19;13.15;;;7.38;;
43150;SDS011;28755;51.478;5.702;2023-06-05T09:30:55;15.80;;;7.57;;
43150;SDS011;28755;51.478;5.702;2023-06-05T09:33:21;14.27;;;6.72;;
43150;SDS011;28755;51.478;5.702;2023-06-05T09:36:08;12.85;;;7.25;;
43150;SDS011;28755;51.478;5.702;2023-06-05T09:38:38;17.38;;;7.70;;
43150;SDS011;28755;51.478;5.702;2023-06-05T09:41:06;13.82;;;8.00;;
43150;SDS011;28755;51.478;5.702;2023-06-05T09:43:33;17.77;;;8.23;;
43150;SDS011;28755;51.478;5.702;2023-06-05T09:48:35;13.27;;;7.55;;
43150;SDS011;28755;51.478;5.702;2023-06-05T09:51:11;11.55;;;7.03;;
43150;SDS011;28755;51.478;5.702;2023-06-05T09:53:47;11.55;;;6.82;;
43150;SDS011;28755;51.478;5.702;2023-06-05T09:56:14;9.93;;;7.30;;
43150;SDS011;28755;51.478;5.702;2023-06-05T10:01:15;12.13;;;7.40;;
43150;SDS011;28755;51.478;5.702;2023-06-05T10:03:44;15.32;;;6.70;;
43150;SDS011;28755;51.478;5.702;2023-06-05T10:06:12;12.57;;;7.28;;
43150;SDS011;28755;51.478;5.702;2023-06-05T10:08:39;14.55;;;7.57;;
43150;SDS011;28755;51.478;5.702;2023-06-05T10:11:05;12.60;;;7.53;;
43150;SDS011;28755;51.478;5.702;2023-06-05T10:13:32;14.50;;;6.80;;
43150;SDS011;28755;51.478;5.702;2023-06-05T10:15:59;11.75;;;6.57;;
43150;SDS011;28755;51.478;5.702;2023-06-05T10:18:25;15.27;;;7.60;;
43150;SDS011;28755;51.478;5.702;2023-06-05T10:20:50;15.20;;;7.32;;
43150;SDS011;28755;51.478;5.702;2023-06-05T10:23:18;10.38;;;6.18;;
43150;SDS011;28755;51.478;5.702;2023-06-05T10:25:45;9.38;;;5.88;;
43150;SDS011;28755;51.478;5.702;2023-06-05T10:28:22;8.38;;;5.78;;
43150;SDS011;28755;51.478;5.702;2023-06-05T10:31:17;10.00;;;5.50;;
43150;SDS011;28755;51.478;5.702;2023-06-05T10:34:12;9.30;;;5.53;;
43150;SDS011;28755;51.478;5.702;2023-06-05T10:39:57;13.07;;;6.90;;
43150;SDS011;28755;51.478;5.702;2023-06-05T10:42:24;8.68;;;5.70;;
43150;SDS011;28755;51.478;5.702;2023-06-05T10:52:44;10.57;;;5.63;;
43150;SDS011;28755;51.478;5.702;2023-06-05T10:55:11;11.43;;;5.40;;
43150;SDS011;28755;51.478;5.702;2023-06-05T11:06:23;9.13;;;5.03;;
43150;SDS011;28755;51.478;5.702;2023-06-05T11:09:05;10.85;;;4.85;;
43150;SDS011;28755;51.478;5.702;2023-06-05T11:12:20;7.53;;;3.92;;
43150;SDS011;28755;51.478;5.702;2023-06-05T11:14:46;10.93;;;4.50;;
43150;SDS011;28755;51.478;5.702;2023-06-05T11:17:28;13.82;;;5.10;;
43150;SDS011;28755;51.478;5.702;2023-06-05T11:19:55;12.75;;;5.25;;
43150;SDS011;28755;51.478;5.702;2023-06-05T11:22:21;7.50;;;5.10;;
43150;SDS011;28755;51.478;5.702;2023-06-05T11:24:55;13.63;;;5.47;;
43150;SDS011;28755;51.478;5.702;2023-06-05T11:27:43;11.15;;;4.95;;
43150;SDS011;28755;51.478;5.702;2023-06-05T11:30:14;8.30;;;4.20;;
43150;SDS011;28755;51.478;5.702;2023-06-05T11:32:40;8.50;;;4.70;;
43150;SDS011;28755;51.478;5.702;2023-06-05T11:35:07;6.90;;;4.03;;
43150;SDS011;28755;51.478;5.702;2023-06-05T11:37:36;10.65;;;4.75;;
43150;SDS011;28755;51.478;5.702;2023-06-05T11:40:03;9.02;;;4.18;;
43150;SDS011;28755;51.478;5.702;2023-06-05T11:42:30;12.30;;;4.22;;
43150;SDS011;28755;51.478;5.702;2023-06-05T11:44:56;9.88;;;4.40;;
43150;SDS011;28755;51.478;5.702;2023-06-05T11:47:22;15.20;;;4.35;;
43150;SDS011;28755;51.478;5.702;2023-06-05T11:49:49;7.57;;;4.30;;
43150;SDS011;28755;51.478;5.702;2023-06-05T11:52:18;7.00;;;3.70;;
43150;SDS011;28755;51.478;5.702;2023-06-05T11:54:45;6.07;;;4.00;;
43150;SDS011;28755;51.478;5.702;2023-06-05T11:57:19;5.47;;;3.75;;
43150;SDS011;28755;51.478;5.702;2023-06-05T11:59:51;10.68;;;3.90;;
43150;SDS011;28755;51.478;5.702;2023-06-05T12:02:20;6.90;;;3.90;;
43150;SDS011;28755;51.478;5.702;2023-06-05T12:04:47;6.78;;;3.53;;
43150;SDS011;28755;51.478;5.702;2023-06-05T12:07:12;7.88;;;4.20;;
43150;SDS011;28755;51.478;5.702;2023-06-05T12:09:38;9.40;;;3.60;;
43150;SDS011;28755;51.478;5.702;2023-06-05T12:12:06;10.10;;;3.83;;
43150;SDS011;28755;51.478;5.702;2023-06-05T12:14:32;5.50;;;3.00;;
43150;SDS011;28755;51.478;5.702;2023-06-05T12:16:59;9.77;;;3.60;;
43150;SDS011;28755;51.478;5.702;2023-06-05T12:19:25;6.07;;;2.90;;
43150;SDS011;28755;51.478;5.702;2023-06-05T12:21:50;5.57;;;3.28;;
43150;SDS011;28755;51.478;5.702;2023-06-05T12:24:27;6.88;;;3.65;;
43150;SDS011;28755;51.478;5.702;2023-06-05T12:29:26;5.35;;;2.60;;
43150;SDS011;28755;51.478;5.702;2023-06-05T12:31:59;5.15;;;2.90;;
43150;SDS011;28755;51.478;5.702;2023-06-05T12:34:46;6.03;;;2.70;;
43150;SDS011;28755;51.478;5.702;2023-06-05T12:37:25;6.65;;;3.30;;
43150;SDS011;28755;51.478;5.702;2023-06-05T12:39:57;5.53;;;2.88;;
43150;SDS011;28755;51.478;5.702;2023-06-05T12:42:24;5.55;;;3.25;;
43150;SDS011;28755;51.478;5.702;2023-06-05T12:44:50;6.13;;;3.20;;
43150;SDS011;28755;51.478;5.702;2023-06-05T12:47:15;3.85;;;2.28;;
43150;SDS011;28755;51.478;5.702;2023-06-05T12:49:41;7.60;;;2.42;;
43150;SDS011;28755;51.478;5.702;2023-06-05T12:52:07;7.57;;;2.80;;
43150;SDS011;28755;51.478;5.702;2023-06-05T12:54:36;9.68;;;3.22;;
43150;SDS011;28755;51.478;5.702;2023-06-05T12:57:02;8.27;;;2.38;;
43150;SDS011;28755;51.478;5.702;2023-06-05T12:59:27;5.88;;;2.30;;
43150;SDS011;28755;51.478;5.702;2023-06-05T13:01:53;6.38;;;2.20;;
43150;SDS011;28755;51.478;5.702;2023-06-05T13:04:18;5.35;;;2.80;;
43150;SDS011;28755;51.478;5.702;2023-06-05T13:06:44;5.65;;;2.78;;
43150;SDS011;28755;51.478;5.702;2023-06-05T13:09:11;11.85;;;2.50;;
43150;SDS011;28755;51.478;5.702;2023-06-05T13:11:37;5.78;;;2.45;;
43150;SDS011;28755;51.478;5.702;2023-06-05T13:14:03;3.83;;;2.10;;
43150;SDS011;28755;51.478;5.702;2023-06-05T13:16:28;5.68;;;2.25;;
43150;SDS011;28755;51.478;5.702;2023-06-05T13:18:54;7.70;;;2.35;;
43150;SDS011;28755;51.478;5.702;2023-06-05T13:21:20;3.72;;;2.28;;
43150;SDS011;28755;51.478;5.702;2023-06-05T13:23:48;4.13;;;2.22;;
43150;SDS011;28755;51.478;5.702;2023-06-05T13:26:14;7.35;;;2.38;;
43150;SDS011;28755;51.478;5.702;2023-06-05T13:28:39;5.97;;;2.20;;
43150;SDS011;28755;51.478;5.702;2023-06-05T13:31:05;3.88;;;2.40;;
43150;SDS011;28755;51.478;5.702;2023-06-05T13:33:31;4.70;;;2.08;;
43150;SDS011;28755;51.478;5.702;2023-06-05T13:35:58;7.10;;;2.28;;
43150;SDS011;28755;51.478;5.702;2023-06-05T13:38:23;4.15;;;2.33;;
43150;SDS011;28755;51.478;5.702;2023-06-05T13:40:49;5.72;;;2.00;;
43150;SDS011;28755;51.478;5.702;2023-06-05T13:43:16;5.13;;;2.00;;
43150;SDS011;28755;51.478;5.702;2023-06-05T13:45:42;7.20;;;2.30;;
43150;SDS011;28755;51.478;5.702;2023-06-05T13:48:08;4.20;;;2.40;;
43150;SDS011;28755;51.478;5.702;2023-06-05T13:50:34;4.00;;;1.83;;
43150;SDS011;28755;51.478;5.702;2023-06-05T13:53:00;7.20;;;2.13;;
43150;SDS011;28755;51.478;5.702;2023-06-05T13:55:25;6.25;;;2.30;;
43150;SDS011;28755;51.478;5.702;2023-06-05T13:57:51;6.28;;;2.50;;
43150;SDS011;28755;51.478;5.702;2023-06-05T14:00:17;9.40;;;2.30;;
43150;SDS011;28755;51.478;5.702;2023-06-05T14:02:43;6.32;;;1.90;;
43150;SDS011;28755;51.478;5.702;2023-06-05T14:05:09;5.93;;;3.00;;
43150;SDS011;28755;51.478;5.702;2023-06-05T14:07:36;11.88;;;2.55;;
43150;SDS011;28755;51.478;5.702;2023-06-05T14:10:02;6.97;;;2.28;;
43150;SDS011;28755;51.478;5.702;2023-06-05T14:12:29;5.45;;;2.17;;
43150;SDS011;28755;51.478;5.702;2023-06-05T14:14:54;5.95;;;2.40;;
43150;SDS011;28755;51.478;5.702;2023-06-05T14:17:20;5.82;;;2.28;;
43150;SDS011;28755;51.478;5.702;2023-06-05T14:19:46;2.95;;;1.95;;
43150;SDS011;28755;51.478;5.702;2023-06-05T14:22:11;6.43;;;2.53;;
43150;SDS011;28755;51.478;5.702;2023-06-05T14:24:38;2.85;;;2.10;;
43150;SDS011;28755;51.478;5.702;2023-06-05T14:27:05;4.57;;;2.13;;
43150;SDS011;28755;51.478;5.702;2023-06-05T14:29:34;8.05;;;2.00;;
43150;SDS011;28755;51.478;5.702;2023-06-05T14:32:02;6.07;;;2.17;;
43150;SDS011;28755;51.478;5.702;2023-06-05T14:34:28;12.05;;;2.58;;
43150;SDS011;28755;51.478;5.702;2023-06-05T14:36:57;5.63;;;1.90;;
43150;SDS011;28755;51.478;5.702;2023-06-05T14:39:22;8.48;;;2.00;;
43150;SDS011;28755;51.478;5.702;2023-06-05T14:41:48;4.90;;;2.25;;
43150;SDS011;28755;51.478;5.702;2023-06-05T14:44:13;11.82;;;2.15;;
43150;SDS011;28755;51.478;5.702;2023-06-05T14:46:39;7.65;;;2.40;;
43150;SDS011;28755;51.478;5.702;2023-06-05T14:49:04;5.78;;;2.55;;
43150;SDS011;28755;51.478;5.702;2023-06-05T14:51:31;4.00;;;2.65;;
43150;SDS011;28755;51.478;5.702;2023-06-05T14:53:56;6.90;;;2.47;;
43150;SDS011;28755;51.478;5.702;2023-06-05T14:56:22;3.45;;;2.20;;
43150;SDS011;28755;51.478;5.702;2023-06-05T14:58:47;5.15;;;2.65;;
43150;SDS011;28755;51.478;5.702;2023-06-05T15:01:13;5.57;;;2.20;;
43150;SDS011;28755;51.478;5.702;2023-06-05T15:03:39;6.97;;;2.17;;
43150;SDS011;28755;51.478;5.702;2023-06-05T15:06:05;8.10;;;2.22;;
43150;SDS011;28755;51.478;5.702;2023-06-05T15:08:31;5.60;;;2.17;;
43150;SDS011;28755;51.478;5.702;2023-06-05T15:10:56;7.78;;;2.28;;
43150;SDS011;28755;51.478;5.702;2023-06-05T15:13:22;7.93;;;2.40;;
43150;SDS011;28755;51.478;5.702;2023-06-05T15:15:49;4.97;;;2.33;;
43150;SDS011;28755;51.478;5.702;2023-06-05T15:18:15;4.85;;;2.20;;